createdAt,value
2022-11-27T00:00:00.269Z,10.17
2022-11-27T00:03:03.136Z,10.37
2022-11-27T00:05:31.558Z,10.03
2022-11-27T00:08:00.440Z,9.95
2022-11-27T00:10:29.260Z,10.28
2022-11-27T00:13:29.501Z,10.47
2022-11-27T00:16:21.527Z,10.28
2022-11-27T00:18:52.748Z,10.24
2022-11-27T00:21:50.254Z,10.19
2022-11-27T00:24:21.864Z,10.11
2022-11-27T00:27:10.741Z,10.05
2022-11-27T00:29:40.492Z,9.97
2022-11-27T00:32:10.154Z,10.04
2022-11-27T00:34:58.382Z,10.05
2022-11-27T00:38:00.791Z,10.27
2022-11-27T00:41:31.016Z,10.35
2022-11-27T00:44:19.784Z,10.09
2022-11-27T00:46:47.512Z,10.09
2022-11-27T00:49:17.291Z,9.76
2022-11-27T00:51:45.459Z,9.71
2022-11-27T00:54:16.018Z,9.62
2022-11-27T00:56:47.161Z,9.93
2022-11-27T00:59:15.764Z,9.45
2022-11-27T01:01:44.270Z,9.57
2022-11-27T01:04:14.819Z,9.59
2022-11-27T01:06:44.182Z,9.52
2022-11-27T01:09:15.428Z,9.57
2022-11-27T01:11:45.714Z,9.59
2022-11-27T01:14:17.092Z,9.47
2022-11-27T01:16:45.645Z,9.48
2022-11-27T01:19:15.356Z,9.56
2022-11-27T01:21:42.999Z,9.43
2022-11-27T01:24:13.837Z,9.35
2022-11-27T01:26:42.185Z,9.36
2022-11-27T01:29:10.294Z,9.30
2022-11-27T01:31:40.252Z,9.26
2022-11-27T01:34:14.603Z,9.05
2022-11-27T01:36:43.560Z,9.10
2022-11-27T01:39:16.649Z,9.20
2022-11-27T01:41:45.869Z,9.19
2022-11-27T01:44:26.350Z,9.12
2022-11-27T01:47:04.854Z,9.10
2022-11-27T01:49:41.614Z,9.06
2022-11-27T01:52:17.345Z,9.00
2022-11-27T01:54:58.512Z,9.03
2022-11-27T01:57:30.735Z,9.01
2022-11-27T02:00:00.033Z,8.99
2022-11-27T02:02:28.955Z,9.03
2022-11-27T02:05:00.376Z,8.92
2022-11-27T02:07:28.496Z,9.00
2022-11-27T02:09:56.632Z,8.79
2022-11-27T02:12:47.660Z,8.92
2022-11-27T02:15:47.147Z,8.86
2022-11-27T02:18:32.907Z,8.84
2022-11-27T02:21:22.747Z,8.87
2022-11-27T02:24:09.219Z,8.80
2022-11-27T02:27:08.266Z,8.79
2022-11-27T02:29:37.052Z,8.69
2022-11-27T02:32:33.989Z,8.60
2022-11-27T02:35:07.930Z,8.74
2022-11-27T02:37:51.230Z,8.61
2022-11-27T02:40:35.048Z,8.73
2022-11-27T02:43:07.930Z,8.73
2022-11-27T02:45:44.072Z,8.62
2022-11-27T02:48:14.177Z,8.57
2022-11-27T02:50:44.775Z,8.55
2022-11-27T02:53:20.046Z,8.65
2022-11-27T02:55:49.758Z,8.73
2022-11-27T02:58:22.124Z,8.39
2022-11-27T03:00:51.375Z,8.52
2022-11-27T03:03:23.864Z,8.54
2022-11-27T03:05:56.105Z,8.49
2022-11-27T03:08:34.029Z,8.51
2022-11-27T03:11:07.674Z,8.50
2022-11-27T03:13:38.702Z,8.46
2022-11-27T03:16:40.085Z,8.50
2022-11-27T03:19:37.215Z,8.48
2022-11-27T03:22:36.816Z,8.45
2022-11-27T03:25:19.171Z,8.38
2022-11-27T03:28:06.652Z,8.43
2022-11-27T03:30:48.941Z,8.35
2022-11-27T03:33:40.753Z,8.27
2022-11-27T03:36:21.589Z,8.09
2022-11-27T03:38:52.179Z,8.20
2022-11-27T03:41:51.166Z,8.18
2022-11-27T03:44:29.155Z,8.20
2022-11-27T03:47:11.332Z,8.18
2022-11-27T03:49:51.397Z,8.25
2022-11-27T03:52:45.032Z,8.31
2022-11-27T03:55:18.876Z,8.10
2022-11-27T03:57:49.643Z,8.03
2022-11-27T04:00:17.687Z,8.26
2022-11-27T04:02:51.080Z,8.01
2022-11-27T04:05:19.218Z,7.99
2022-11-27T04:07:47.795Z,8.05
2022-11-27T04:10:16.246Z,8.14
2022-11-27T04:12:44.223Z,8.00
2022-11-27T04:15:12.168Z,7.99
2022-11-27T04:17:40.209Z,7.90
2022-11-27T04:20:08.963Z,7.91
2022-11-27T04:22:37.473Z,7.74
2022-11-27T04:25:05.577Z,7.75
2022-11-27T04:27:33.652Z,7.83
2022-11-27T04:30:01.946Z,7.91
2022-11-27T04:32:29.635Z,7.87
2022-11-27T04:34:57.129Z,7.85
2022-11-27T04:37:24.957Z,7.87
2022-11-27T04:39:54.693Z,7.83
2022-11-27T04:42:22.292Z,7.77
2022-11-27T04:44:50.243Z,7.85
2022-11-27T04:47:19.037Z,7.67
2022-11-27T04:49:46.804Z,7.74
2022-11-27T04:52:15.393Z,7.70
2022-11-27T04:54:44.237Z,7.53
2022-11-27T04:57:16.870Z,7.76
2022-11-27T04:59:46.290Z,7.67
2022-11-27T05:02:16.209Z,7.63
2022-11-27T05:04:45.331Z,7.77
2022-11-27T05:07:13.167Z,7.60
2022-11-27T05:09:42.080Z,7.50
2022-11-27T05:12:13.540Z,7.47
2022-11-27T05:14:41.712Z,7.57
2022-11-27T05:17:11.394Z,7.55
2022-11-27T05:19:39.589Z,7.57
2022-11-27T05:22:07.913Z,7.67
2022-11-27T05:24:36.893Z,7.73
2022-11-27T05:27:04.650Z,7.79
2022-11-27T05:29:32.873Z,7.83
2022-11-27T05:32:00.831Z,7.95
2022-11-27T05:34:35.068Z,7.64
2022-11-27T05:37:05.235Z,7.84
2022-11-27T05:39:33.103Z,7.94
2022-11-27T05:42:01.967Z,7.81
2022-11-27T05:44:32.326Z,7.75
2022-11-27T05:47:00.418Z,7.83
2022-11-27T05:49:30.136Z,8.18
2022-11-27T05:51:59.241Z,8.03
2022-11-27T05:54:27.215Z,7.86
2022-11-27T05:56:54.777Z,7.95
2022-11-27T05:59:25.202Z,7.94
2022-11-27T06:01:53.198Z,8.02
2022-11-27T06:04:21.484Z,8.07
2022-11-27T06:06:49.402Z,7.92
2022-11-27T06:09:17.219Z,7.86
2022-11-27T06:11:49.125Z,7.98
2022-11-27T06:14:17.710Z,7.92
2022-11-27T06:16:46.218Z,8.00
2022-11-27T06:19:14.203Z,7.81
2022-11-27T06:21:41.905Z,7.97
2022-11-27T06:24:15.040Z,8.06
2022-11-27T06:26:43.434Z,7.98
2022-11-27T06:29:11.180Z,8.04
2022-11-27T06:31:40.965Z,8.02
2022-11-27T06:34:12.466Z,8.12
2022-11-27T06:36:42.534Z,8.09
2022-11-27T06:39:12.852Z,7.87
2022-11-27T06:41:42.933Z,8.11
2022-11-27T06:44:11.683Z,8.10
2022-11-27T06:46:49.073Z,8.16
2022-11-27T06:49:21.867Z,8.11
2022-11-27T06:51:51.064Z,8.12
2022-11-27T06:54:19.591Z,8.22
2022-11-27T06:56:50.100Z,8.29
2022-11-27T06:59:26.359Z,8.51
2022-11-27T07:01:56.953Z,8.41
2022-11-27T07:04:27.014Z,8.33
2022-11-27T07:07:01.924Z,8.32
2022-11-27T07:09:29.983Z,8.34
2022-11-27T07:11:59.913Z,8.47
2022-11-27T07:17:04.115Z,8.44
2022-11-27T07:19:32.878Z,8.45
2022-11-27T07:22:02.926Z,8.49
2022-11-27T07:24:43.268Z,8.64
2022-11-27T07:27:14.720Z,8.68
2022-11-27T07:29:43.161Z,8.58
2022-11-27T07:32:11.585Z,8.51
2022-11-27T07:34:41.514Z,8.46
2022-11-27T07:37:18.115Z,8.62
2022-11-27T07:40:04.740Z,8.69
2022-11-27T07:42:39.910Z,8.63
2022-11-27T07:45:11.913Z,8.64
2022-11-27T07:47:43.446Z,8.66
2022-11-27T07:50:13.344Z,8.98
2022-11-27T07:52:42.449Z,8.78
2022-11-27T07:55:17.573Z,9.17
2022-11-27T07:57:49.754Z,9.31
2022-11-27T08:00:20.942Z,9.26
2022-11-27T08:02:51.823Z,9.08
2022-11-27T08:05:19.837Z,9.19
2022-11-27T08:08:27.283Z,9.04
2022-11-27T08:10:57.990Z,8.89
2022-11-27T08:13:32.072Z,9.17
2022-11-27T08:16:08.088Z,9.03
2022-11-27T08:18:38.945Z,9.02
2022-11-27T08:21:07.068Z,8.75
2022-11-27T08:23:35.234Z,8.81
2022-11-27T08:26:10.833Z,9.18
2022-11-27T08:28:41.877Z,8.99
2022-11-27T08:31:14.018Z,9.06
2022-11-27T08:33:52.895Z,9.29
2022-11-27T08:36:26.908Z,9.12
2022-11-27T08:38:56.612Z,9.34
2022-11-27T08:41:31.189Z,9.17
2022-11-27T08:44:00.260Z,9.24
2022-11-27T08:46:28.498Z,9.59
2022-11-27T08:49:06.929Z,9.62
2022-11-27T08:51:50.165Z,9.33
2022-11-27T08:54:29.897Z,9.28
2022-11-27T08:57:03.266Z,9.45
2022-11-27T08:59:33.001Z,9.31
2022-11-27T09:02:22.800Z,9.26
2022-11-27T09:04:50.950Z,9.29
2022-11-27T09:07:27.948Z,9.17
2022-11-27T09:09:57.074Z,9.31
2022-11-27T09:12:30.826Z,9.23
2022-11-27T09:14:58.407Z,9.07
2022-11-27T09:17:27.280Z,9.08
2022-11-27T09:19:57.393Z,9.29
2022-11-27T09:22:32.923Z,8.83
2022-11-27T09:25:10.244Z,9.30
2022-11-27T09:27:38.868Z,9.40
2022-11-27T09:30:11.062Z,9.38
2022-11-27T09:32:47.297Z,9.63
2022-11-27T09:35:18.261Z,9.72
2022-11-27T09:37:47.033Z,9.47
2022-11-27T09:40:24.863Z,9.47
2022-11-27T09:43:03.973Z,9.66
2022-11-27T09:45:33.820Z,9.76
2022-11-27T09:48:13.083Z,9.70
2022-11-27T09:50:52.849Z,9.66
2022-11-27T09:53:40.954Z,9.66
2022-11-27T09:56:16.871Z,9.71
2022-11-27T09:58:57.632Z,9.32
2022-11-27T10:01:42.076Z,9.32
2022-11-27T10:07:07.003Z,9.79
2022-11-27T10:10:02.906Z,9.64
2022-11-27T10:13:01.018Z,9.79
2022-11-27T10:16:44.720Z,9.74
2022-11-27T10:19:52.844Z,10.07
2022-11-27T10:22:52.899Z,10.07
2022-11-27T10:26:05.033Z,10.02
2022-11-27T10:29:02.489Z,10.12
2022-11-27T10:31:58.202Z,9.69
2022-11-27T10:37:55.085Z,9.71
2022-11-27T10:41:18.588Z,9.82
2022-11-27T10:44:01.268Z,9.96
2022-11-27T10:46:46.374Z,9.40
2022-11-27T10:49:30.957Z,9.69
2022-11-27T10:52:17.104Z,9.77
2022-11-27T10:55:44.829Z,9.56
2022-11-27T10:58:40.973Z,9.91
2022-11-27T11:01:25.975Z,9.43
2022-11-27T11:04:35.763Z,9.64
2022-11-27T11:07:25.112Z,9.86
2022-11-27T11:10:24.686Z,9.40
2022-11-27T11:13:18.865Z,9.16
2022-11-27T11:16:17.542Z,9.20
2022-11-27T11:19:01.213Z,9.43
2022-11-27T11:21:47.165Z,9.46
2022-11-27T11:24:33.942Z,9.44
2022-11-27T11:27:35.778Z,9.40
2022-11-27T11:30:30.889Z,9.40
2022-11-27T11:33:14.212Z,9.37
2022-11-27T11:36:07.972Z,9.01
2022-11-27T11:38:54.417Z,8.91
2022-11-27T11:44:50.985Z,9.53
2022-11-27T11:47:37.030Z,9.72
2022-11-27T11:50:32.126Z,9.83
2022-11-27T11:53:33.436Z,9.49
2022-11-27T11:56:41.839Z,9.57
2022-11-27T12:02:50.828Z,8.92
2022-11-27T12:06:02.865Z,9.26
2022-11-27T12:09:31.857Z,8.78
2022-11-27T12:12:39.836Z,9.03
2022-11-27T12:15:33.850Z,9.18
2022-11-27T12:18:38.837Z,8.89
2022-11-27T12:21:49.939Z,8.95
2022-11-27T12:24:42.205Z,8.94
2022-11-27T12:27:54.708Z,9.17
2022-11-27T12:31:18.146Z,9.50
2022-11-27T12:34:27.234Z,9.01
2022-11-27T12:37:31.856Z,9.12
2022-11-27T12:40:29.023Z,9.36
2022-11-27T12:43:31.846Z,9.39
2022-11-27T12:46:20.278Z,9.78
2022-11-27T12:49:14.297Z,9.76
2022-11-27T12:52:19.941Z,9.87
2022-11-27T12:55:23.069Z,9.77
2022-11-27T12:58:16.847Z,9.67
2022-11-27T13:01:13.965Z,9.43
2022-11-27T13:04:43.979Z,9.44
2022-11-27T13:07:54.868Z,9.33
2022-11-27T13:11:05.256Z,9.20
2022-11-27T13:13:56.919Z,9.60
2022-11-27T13:16:52.911Z,9.66
2022-11-27T13:19:46.888Z,9.78
2022-11-27T13:22:34.740Z,9.96
2022-11-27T13:25:18.002Z,9.78
2022-11-27T13:28:04.917Z,9.64
2022-11-27T13:30:48.508Z,9.85
2022-11-27T13:33:39.075Z,9.92
2022-11-27T13:36:35.715Z,9.66
2022-11-27T13:39:24.854Z,9.95
2022-11-27T13:42:11.431Z,9.63
2022-11-27T13:45:05.410Z,9.67
2022-11-27T13:47:50.439Z,10.16
2022-11-27T13:50:59.802Z,9.94
2022-11-27T13:53:53.785Z,9.85
2022-11-27T13:56:36.849Z,9.79
2022-11-27T13:59:28.844Z,10.07
2022-11-27T14:02:26.986Z,9.85
2022-11-27T14:05:16.846Z,9.70
2022-11-27T14:08:00.627Z,9.56
2022-11-27T14:10:52.804Z,9.43
2022-11-27T14:13:50.573Z,9.26
2022-11-27T14:16:39.736Z,9.42
2022-11-27T14:19:45.197Z,9.26
2022-11-27T14:23:00.187Z,9.28
2022-11-27T14:25:39.013Z,9.51
2022-11-27T14:28:28.835Z,9.39
2022-11-27T14:31:36.947Z,9.69
2022-11-27T14:34:29.968Z,9.62
2022-11-27T14:37:30.150Z,9.58
2022-11-27T14:43:13.777Z,9.34
2022-11-27T14:45:59.077Z,8.95
2022-11-27T14:48:45.877Z,9.06
2022-11-27T14:51:32.918Z,9.12
2022-11-27T14:54:26.025Z,9.20
2022-11-27T14:57:17.088Z,9.08
2022-11-27T15:00:37.745Z,9.16
2022-11-27T15:06:19.984Z,9.36
2022-11-27T15:09:31.699Z,9.31
2022-11-27T15:12:27.947Z,9.42
2022-11-27T15:15:18.800Z,9.26
2022-11-27T15:18:05.192Z,9.23
2022-11-27T15:20:51.016Z,9.17
2022-11-27T15:23:34.872Z,9.18
2022-11-27T15:26:43.826Z,9.34
2022-11-27T15:29:38.364Z,9.56
2022-11-27T15:32:36.988Z,9.55
2022-11-27T15:35:33.603Z,9.55
2022-11-27T15:41:06.564Z,9.03
2022-11-27T15:43:48.989Z,9.03
2022-11-27T15:46:35.175Z,9.13
2022-11-27T15:49:34.793Z,8.90
2022-11-27T15:52:22.807Z,9.15
2022-11-27T15:58:03.730Z,9.29
2022-11-27T16:00:50.213Z,9.60
2022-11-27T16:03:46.246Z,9.17
2022-11-27T16:06:29.813Z,9.15
2022-11-27T16:09:18.901Z,8.79
2022-11-27T16:12:04.272Z,8.79
2022-11-27T16:14:49.882Z,9.17
2022-11-27T16:17:44.691Z,9.19
2022-11-27T16:20:29.909Z,9.29
2022-11-27T16:23:28.739Z,9.12
2022-11-27T16:26:13.138Z,9.02
2022-11-27T16:29:08.060Z,9.53
2022-11-27T16:31:53.671Z,9.31
2022-11-27T16:34:40.901Z,9.19
2022-11-27T16:37:24.786Z,9.50
2022-11-27T16:40:25.016Z,9.41
2022-11-27T16:43:20.013Z,9.33
2022-11-27T16:46:19.558Z,9.09
2022-11-27T16:49:10.830Z,9.11
2022-11-27T16:57:43.806Z,9.28
2022-11-27T17:00:26.614Z,9.11
2022-11-27T17:03:12.153Z,9.03
2022-11-27T17:06:05.757Z,9.08
2022-11-27T17:08:49.551Z,9.30
2022-11-27T17:11:51.314Z,9.26
2022-11-27T17:14:23.034Z,9.14
2022-11-27T17:17:12.794Z,9.05
2022-11-27T17:20:00.888Z,9.10
2022-11-27T17:22:43.090Z,9.15
2022-11-27T17:25:25.907Z,9.46
2022-11-27T17:28:10.878Z,9.38
2022-11-27T17:31:06.993Z,9.21
2022-11-27T17:33:52.711Z,9.30
2022-11-27T17:36:37.490Z,9.18
2022-11-27T17:39:21.765Z,9.35
2022-11-27T17:42:12.901Z,9.08
2022-11-27T17:45:07.838Z,9.16
2022-11-27T17:47:59.830Z,9.28
2022-11-27T17:50:44.946Z,9.42
2022-11-27T17:53:37.814Z,8.90
2022-11-27T17:56:23.194Z,9.22
2022-11-27T17:59:21.762Z,8.91
2022-11-27T18:02:08.827Z,8.77
2022-11-27T18:04:58.114Z,9.03
2022-11-27T18:07:45.058Z,8.88
2022-11-27T18:10:27.194Z,8.94
2022-11-27T18:13:11.753Z,9.29
2022-11-27T18:15:58.064Z,9.22
2022-11-27T18:18:54.548Z,9.27
2022-11-27T18:21:41.952Z,8.96
2022-11-27T18:24:28.589Z,9.04
2022-11-27T18:27:18.655Z,8.67
2022-11-27T18:30:10.099Z,8.89
2022-11-27T18:32:56.819Z,8.79
2022-11-27T18:35:45.135Z,9.12
2022-11-27T18:38:50.777Z,9.23
2022-11-27T18:41:42.998Z,9.06
2022-11-27T18:44:50.891Z,9.21
2022-11-27T18:47:40.697Z,8.89
2022-11-27T18:50:37.474Z,9.06
2022-11-27T18:53:23.797Z,9.09
2022-11-27T18:56:13.768Z,8.86
2022-11-27T18:59:06.998Z,8.84
2022-11-27T19:01:47.823Z,8.83
2022-11-27T19:04:31.255Z,8.80
2022-11-27T19:07:28.264Z,8.82
2022-11-27T19:10:34.685Z,8.85
2022-11-27T19:13:16.995Z,8.80
2022-11-27T19:16:17.899Z,8.96
2022-11-27T19:19:04.300Z,8.90
2022-11-27T19:24:54.116Z,8.98
2022-11-27T19:27:50.943Z,8.94
2022-11-27T19:30:36.951Z,8.92
2022-11-27T19:33:20.164Z,9.02
2022-11-27T19:36:21.999Z,9.07
2022-11-27T19:39:10.807Z,9.00
2022-11-27T19:45:03.726Z,8.75
2022-11-27T19:47:47.274Z,8.85
2022-11-27T19:50:46.669Z,8.77
2022-11-27T19:53:36.788Z,8.68
2022-11-27T19:56:21.133Z,8.75
2022-11-27T20:01:57.115Z,8.74
2022-11-27T20:08:58.940Z,8.58
2022-11-27T20:11:45.800Z,8.62
2022-11-27T20:14:28.478Z,8.76
2022-11-27T20:17:10.936Z,8.95
2022-11-27T20:19:55.770Z,8.68
2022-11-27T20:22:53.790Z,8.85
2022-11-27T20:25:44.043Z,8.75
2022-11-27T20:28:28.313Z,8.66
2022-11-27T20:31:26.840Z,8.56
2022-11-27T20:34:31.797Z,8.84
2022-11-27T20:37:20.731Z,8.63
2022-11-27T20:40:10.888Z,8.65
2022-11-27T20:43:10.625Z,8.48
2022-11-27T20:46:01.437Z,8.61
2022-11-27T20:48:52.505Z,8.30
2022-11-27T20:51:39.000Z,8.51
2022-11-27T20:54:21.376Z,8.57
2022-11-27T20:57:14.759Z,8.64
2022-11-27T21:00:01.854Z,8.57
2022-11-27T21:02:48.762Z,8.52
2022-11-27T21:05:31.969Z,8.51
2022-11-27T21:08:14.936Z,8.63
2022-11-27T21:13:50.799Z,8.64
2022-11-27T21:16:38.424Z,8.75
2022-11-27T21:19:32.272Z,8.82
2022-11-27T21:22:18.372Z,8.79
2022-11-27T21:25:06.901Z,8.87
2022-11-27T21:27:49.533Z,9.11
2022-11-27T21:30:45.846Z,9.16
2022-11-27T21:33:28.184Z,8.96
2022-11-27T21:36:19.194Z,9.01
2022-11-27T21:39:08.745Z,8.80
2022-11-27T21:44:47.326Z,8.78
2022-11-27T21:47:29.882Z,8.66
2022-11-27T21:50:13.582Z,8.68
2022-11-27T21:52:56.319Z,8.82
2022-11-27T21:59:54.653Z,8.71
2022-11-27T22:02:37.799Z,8.67
2022-11-27T22:05:22.346Z,8.81
2022-11-27T22:08:05.925Z,8.93
2022-11-27T22:10:49.233Z,8.90
2022-11-27T22:13:36.772Z,8.71
2022-11-27T22:16:23.009Z,8.84
2022-11-27T22:19:05.631Z,8.69
2022-11-27T22:21:50.759Z,8.83
2022-11-27T22:24:20.063Z,8.81
2022-11-27T22:26:51.308Z,8.94
2022-11-27T22:29:20.041Z,8.90
2022-11-27T22:31:48.221Z,8.85
2022-11-27T22:34:16.491Z,8.98
2022-11-27T22:39:21.045Z,8.93
2022-11-27T22:41:49.025Z,8.91
2022-11-27T22:44:19.099Z,9.07
2022-11-27T22:46:47.893Z,9.24
2022-11-27T22:49:18.786Z,9.09
2022-11-27T22:51:50.897Z,9.07
2022-11-27T22:54:21.678Z,9.08
2022-11-27T22:56:53.194Z,9.09
2022-11-27T22:59:32.199Z,8.96
2022-11-27T23:02:05.560Z,9.05
2022-11-27T23:04:34.792Z,8.99
2022-11-27T23:07:04.178Z,9.03
2022-11-27T23:09:34.960Z,9.05
2022-11-27T23:14:38.364Z,9.21
2022-11-27T23:17:06.869Z,9.20
2022-11-27T23:19:36.764Z,9.07
2022-11-27T23:22:04.583Z,9.15
2022-11-27T23:24:32.504Z,9.12
2022-11-27T23:26:59.982Z,9.09
2022-11-27T23:29:28.926Z,8.92
2022-11-27T23:31:57.269Z,8.75
2022-11-27T23:34:25.432Z,8.84
2022-11-27T23:36:53.329Z,9.12
2022-11-27T23:39:27.680Z,8.97
2022-11-27T23:41:55.179Z,8.91
2022-11-27T23:44:23.088Z,8.81
2022-11-27T23:46:50.537Z,9.08
2022-11-27T23:49:19.036Z,8.89
2022-11-27T23:51:48.936Z,8.73
2022-11-27T23:54:17.052Z,8.56
2022-11-27T23:56:44.578Z,8.45
2022-11-27T23:59:13.787Z,8.51
